METAR KASJ 192355Z AUTO 00000KT 1 1/4SM -SN OVC002 01/01 A3012 RMK AO2 P0006 
METAR KASJ 192335Z AUTO 00000KT 1 3/4SM -SN OVC002 01/01 A3013 RMK AO2 P0003 
METAR KASJ 192315Z AUTO 00000KT 2SM RA OVC002 01/01 A3011 RMK AO2 P0001 
METAR KASJ 192255Z AUTO 34003KT 1 3/4SM UP BKN002 OVC016 01/01 A3010 RMK AO2 P0009 
METAR KASJ 192235Z AUTO 01003KT 1 1/4SM UP SCT002 BKN016 OVC028 01/01 A3009 RMK AO2 P0005 
METAR KASJ 192215Z AUTO 00000KT 1 3/4SM -SN BKN002 BKN013 OVC041 01/01 A3013 RMK AO2 P0003 
METAR KASJ 192155Z AUTO 00000KT 2SM UP BKN002 BKN022 OVC046 01/01 A3013 RMK AO2 P0007 
METAR KASJ 192135Z AUTO 00000KT 1 1/4SM -SN OVC002 01/01 A3014 RMK AO2 P0005 
METAR KASJ 192115Z AUTO 00000KT 1 1/4SM -SN OVC002 01/01 A3012 RMK AO2 P0002 
METAR KASJ 192055Z AUTO 00000KT 1SM -SN OVC002 01/01 A3012 RMK AO2 P0006 
METAR KASJ 192035Z AUTO 00000KT 1 1/4SM UP OVC004 01/01 A3015 RMK AO2 P0002 
METAR KASJ 192015Z AUTO 00000KT 1 1/2SM UP OVC004 01/01 A3014 RMK AO2 P0001 
METAR KASJ 191955Z AUTO 00000KT 2SM UP OVC004 01/01 A3013 RMK AO2 P0003 
METAR KASJ 191935Z AUTO 00000KT 2 1/2SM -SN BKN004 OVC007 02/01 A3013 RMK AO2 P0002 
METAR KASJ 191915Z AUTO 00000KT 2 1/2SM -SN OVC004 02/01 A3013 RMK AO2 P0001 
METAR KASJ 191855Z AUTO 00000KT 2SM -SN OVC006 02/01 A3013 RMK AO2 P0005 
METAR KASJ 191835Z AUTO 00000KT 3SM -SN BKN006 OVC013 03/02 A3016 RMK AO2 P0003 
METAR KASJ 191815Z AUTO 00000KT 2SM RA SCT006 OVC015 03/01 A3018 RMK AO2 P0002 
METAR KASJ 191755Z AUTO 00000KT 4SM -RA BKN008 OVC015 03/01 A3018 RMK AO2 P0006 
METAR KASJ 191735Z AUTO 00000KT 3SM RA SCT008 OVC017 03/01 A3018 RMK AO2 P0004 
METAR KASJ 191715Z AUTO 00000KT 3SM RA SCT013 OVC019 03/01 A3017 RMK AO2 P0002 
METAR KASJ 191655Z AUTO 00000KT 4SM -RA BKN020 OVC025 03/01 A3021 RMK AO2 P0004 
METAR KASJ 191635Z AUTO 00000KT 4SM RA SCT019 BKN025 OVC060 03/01 A3021 RMK AO2 P0003 
METAR KASJ 191615Z AUTO 00000KT 4SM RA SCT013 BKN027 OVC060 03/01 A3022 RMK AO2 P0002 
METAR KASJ 191555Z AUTO 03004KT 5SM RA SCT013 OVC019 04/01 A3020 RMK AO2 P0001 
METAR KASJ 191535Z AUTO 02006KT 10SM RA SCT013 BKN020 OVC028 05/00 A3022 RMK AO2 P0000 
METAR KASJ 191515Z AUTO 00000KT 10SM SCT023 BKN028 OVC043 05/00 A3021 RMK AO2 
METAR KASJ 191455Z AUTO 00000KT 10SM BKN033 BKN040 BKN047 05/M01 A3022 RMK AO2 
METAR KASJ 191435Z AUTO 02003KT 10SM -RA SCT040 SCT048 BKN065 05/M01 A3020 RMK AO2 P0000 
METAR KASJ 191415Z AUTO 02003KT 10SM -SN SCT075 05/M01 A3018 RMK AO2 P0000 
METAR KASJ 191355Z AUTO 03004KT 10SM -DZ SCT070 05/M01 A3017 RMK AO2 P0000 
METAR KASJ 191335Z AUTO 01006KT 10SM SCT060 SCT070 06/M01 A3017 RMK AO2 
METAR KASJ 191315Z AUTO 01004KT 10SM SCT060 SCT070 SCT090 05/M01 A3018 RMK AO2 
METAR KASJ 191255Z AUTO 00003KT 10SM BKN060 OVC070 05/00 A3019 RMK AO2 
METAR KASJ 191235Z AUTO 00000KT 10SM BKN060 OVC070 05/00 A3020 RMK AO2 
METAR KASJ 191215Z AUTO 00000KT 10SM SCT070 OVC080 04/00 A3018 RMK AO2 
METAR KASJ 191155Z AUTO 00000KT 10SM SCT065 OVC080 05/01 A3017 RMK AO2 
METAR KASJ 191135Z AUTO 00000KT 10SM BKN065 OVC080 05/00 A3016 RMK AO2 
METAR KASJ 191115Z AUTO 00000KT 10SM OVC080 05/00 A3017 RMK AO2 
METAR KASJ 191055Z AUTO 00000KT 10SM OVC080 05/00 A3017 RMK AO2 
METAR KASJ 191035Z AUTO 00000KT 10SM OVC080 05/00 A3016 RMK AO2 
METAR KASJ 191015Z AUTO 00000KT 10SM OVC080 05/00 A3016 RMK AO2 
METAR KASJ 190955Z AUTO 00000KT 10SM OVC080 05/M01 A3016 RMK AO2 
METAR KASJ 190935Z AUTO 00000KT 10SM OVC085 05/M01 A3017 RMK AO2 
METAR KASJ 190915Z AUTO 00000KT 10SM OVC085 05/00 A3017 RMK AO2 
METAR KASJ 190855Z AUTO 00000KT 10SM OVC085 05/00 A3017 RMK AO2 
METAR KASJ 190835Z AUTO 00000KT 10SM OVC085 05/00 A3015 RMK AO2 
METAR KASJ 190815Z AUTO 00000KT 10SM BKN085 05/00 A3014 RMK AO2 
METAR KASJ 190755Z AUTO 00000KT 10SM BKN075 BKN095 06/00 A3016 RMK AO2 
METAR KASJ 190735Z AUTO 00000KT 10SM BKN075 OVC085 06/00 A3017 RMK AO2 
METAR KASJ 190715Z AUTO 00000KT 10SM OVC090 05/00 A3018 RMK AO2 
METAR KASJ 190655Z AUTO 00000KT 10SM BKN090 05/00 A3018 RMK AO2 
METAR KASJ 190635Z AUTO 00000KT 10SM CLR 04/00 A3017 RMK AO2 
METAR KASJ 190615Z AUTO 00000KT 10SM SCT090 04/00 A3014 RMK AO2 
METAR KASJ 190555Z AUTO 00000KT 10SM CLR 04/01 A3014 RMK AO2 
METAR KASJ 190535Z AUTO 00000KT 10SM CLR 04/01 A3014 RMK AO2 
METAR KASJ 190515Z AUTO 00000KT 10SM CLR 03/00 A3014 RMK AO2 
METAR KASJ 190455Z AUTO 00000KT 10SM CLR 04/00 A3014 RMK AO2 
METAR KASJ 190435Z AUTO 00000KT 10SM CLR 05/00 A3014 RMK AO2 
METAR KASJ 190415Z AUTO 00000KT 10SM CLR 04/00 A3015 RMK AO2 
METAR KASJ 190355Z AUTO 00000KT 10SM CLR 04/00 A3015 RMK AO2 
METAR KASJ 190335Z AUTO 00000KT 10SM CLR 05/00 A3013 RMK AO2 
METAR KASJ 190315Z AUTO 00000KT 10SM CLR 04/00 A3012 RMK AO2 
METAR KASJ 190255Z AUTO 00000KT 10SM SCT090 05/00 A3016 RMK AO2 
METAR KASJ 190235Z AUTO 17003KT 10SM BKN100 05/00 A3016 RMK AO2 
METAR KASJ 190215Z AUTO 00000KT 10SM SCT100 05/00 A3018 RMK AO2 
METAR KASJ 190155Z AUTO 00000KT 10SM SCT100 04/00 A3017 RMK AO2 
METAR KASJ 190135Z AUTO 00000KT 10SM SCT110 04/01 A3015 RMK AO2 
METAR KASJ 190115Z AUTO 00000KT 10SM SCT120 04/01 A3016 RMK AO2 
METAR KASJ 190055Z AUTO 00000KT 10SM CLR 04/01 A3017 RMK AO2 
METAR KASJ 190035Z AUTO 00000KT 10SM CLR 04/00 A3018 RMK AO2 
METAR KASJ 190015Z AUTO 00000KT 10SM CLR 05/00 A3017 RMK AO2 
METAR KASJ 182355Z AUTO 00000KT 10SM CLR 04/00 A3017 RMK AO2 
METAR KASJ 182335Z AUTO 00000KT 10SM CLR 04/00 A3015 RMK AO2 
METAR KASJ 182315Z AUTO 00000KT 10SM CLR 05/00 A3014 RMK AO2 
METAR KASJ 182255Z AUTO 00000KT 10SM CLR 05/00 A3014 RMK AO2 
METAR KASJ 182235Z AUTO 00000KT 10SM CLR 05/00 A3017 RMK AO2 
METAR KASJ 182215Z AUTO 00000KT 10SM CLR 05/M01 A3017 RMK AO2 
METAR KASJ 182155Z AUTO 00000KT 10SM CLR 06/M02 A3017 RMK AO2 
METAR KASJ 182135Z AUTO 00000KT 10SM CLR 07/M02 A3017 RMK AO2 
METAR KASJ 182115Z AUTO 00000KT 10SM CLR 07/M02 A3018 RMK AO2 
METAR KASJ 182055Z AUTO 00000KT 10SM CLR 07/M03 A3018 RMK AO2 
METAR KASJ 182035Z AUTO 00000KT 10SM CLR 07/M03 A3019 RMK AO2 
METAR KASJ 182015Z AUTO 00000KT 10SM CLR 08/M03 A3019 RMK AO2 
METAR KASJ 181955Z AUTO 00000KT 10SM CLR 07/M03 A3018 RMK AO2 
METAR KASJ 181935Z AUTO 00000KT 10SM CLR 08/M03 A3017 RMK AO2 
METAR KASJ 181915Z AUTO 00000KT 10SM CLR 07/M05 A3017 RMK AO2 
METAR KASJ 181855Z AUTO 00000KT 10SM CLR 07/M05 A3018 RMK AO2 
METAR KASJ 181835Z AUTO 00003KT 10SM CLR 07/M05 A3019 RMK AO2 
METAR KASJ 181815Z AUTO 00000KT 10SM CLR 07/M05 A3019 RMK AO2 
METAR KASJ 181755Z AUTO 00000KT 10SM CLR 07/M05 A3020 RMK AO2 
METAR KASJ 181735Z AUTO 00000KT 10SM CLR 06/M05 A3021 RMK AO2 
METAR KASJ 181715Z AUTO 35004KT 10SM CLR 06/M05 A3022 RMK AO2 
METAR KASJ 181655Z AUTO 00003KT 10SM CLR 06/M05 A3023 RMK AO2 
METAR KASJ 181635Z AUTO 00000KT 10SM CLR 06/M05 A3024 RMK AO2 
METAR KASJ 181615Z AUTO 05003KT 10SM CLR 06/M05 A3025 RMK AO2 
METAR KASJ 181555Z AUTO 05004KT 10SM CLR 05/M04 A3027 RMK AO2 
METAR KASJ 181535Z AUTO 03003KT 10SM CLR 05/M04 A3027 RMK AO2